Time;durP1;ratioP1;P1;durP2;ratioP2;P2;SDS_P1;SDS_P2;PMS_P1;PMS_P2;Temp;Humidity;BMP_temperature;BMP_pressure;BME280_temperature;BME280_humidity;BME280_pressure;Samples;Min_cycle;Max_cycle;Signal;HPM_P1;HPM_P2
2022/09/20 00:01:11;;;;;;;10.25;1.95;;;10.30;99.90;;;;;;6002519;23;20318;-87
2022/09/20 00:03:41;;;;;;;9.60;1.98;;;10.30;99.90;;;;;;6003809;23;20028;-87
2022/09/20 00:06:09;;;;;;;8.20;1.90;;;10.20;99.90;;;;;;6004933;23;20019;-87
2022/09/20 00:08:35;;;;;;;11.25;2.20;;;10.20;99.90;;;;;;6002950;23;20442;-87
2022/09/20 00:11:03;;;;;;;8.57;2.22;;;10.20;99.90;;;;;;6001525;23;20019;-88
2022/09/20 00:13:29;;;;;;;10.10;2.03;;;10.10;99.90;;;;;;6004365;23;20087;-87
2022/09/20 00:15:55;;;;;;;11.48;2.13;;;10.20;99.90;;;;;;6008078;23;20066;-87
2022/09/20 00:18:21;;;;;;;7.72;1.90;;;10.10;99.90;;;;;;6010491;23;20022;-87
2022/09/20 00:20:49;;;;;;;8.77;2.05;;;10.10;99.90;;;;;;6004410;23;20395;-87
2022/09/20 00:23:15;;;;;;;12.32;2.50;;;10.10;99.90;;;;;;6004463;23;20012;-87
2022/09/20 00:25:41;;;;;;;9.23;2.22;;;10.10;99.90;;;;;;6002710;23;20035;-87
2022/09/20 00:28:07;;;;;;;10.48;2.47;;;10.00;99.90;;;;;;6004636;23;20016;-87
2022/09/20 00:30:33;;;;;;;9.02;2.10;;;10.00;99.90;;;;;;6001935;23;20074;-87
2022/09/20 00:32:59;;;;;;;8.65;2.00;;;10.00;99.90;;;;;;6002498;23;20026;-87
2022/09/20 00:35:24;;;;;;;10.43;2.17;;;10.00;99.90;;;;;;6002556;23;20038;-87
2022/09/20 00:37:50;;;;;;;9.40;2.50;;;9.90;99.90;;;;;;6002466;23;20436;-87
2022/09/20 00:40:21;;;;;;;10.30;2.20;;;10.00;99.90;;;;;;6003957;23;20012;-87
2022/09/20 00:42:48;;;;;;;11.13;2.30;;;9.90;99.90;;;;;;5979402;23;20012;-87
2022/09/20 00:45:25;;;;;;;9.88;2.17;;;9.90;99.90;;;;;;6003040;23;20027;-87
2022/09/20 00:48:14;;;;;;;9.60;2.50;;;9.90;99.90;;;;;;6004304;23;20054;-87
2022/09/20 00:50:55;;;;;;;10.82;2.28;;;9.80;99.90;;;;;;6003205;23;20015;-87
2022/09/20 00:53:31;;;;;;;9.50;1.60;;;9.80;99.90;;;;;;6005414;23;20536;-87
2022/09/20 00:55:57;;;;;;;13.63;3.10;;;9.70;99.90;;;;;;6004793;23;20016;-87
2022/09/20 00:58:25;;;;;;;10.90;1.95;;;9.70;99.90;;;;;;6004217;23;20395;-87
2022/09/20 01:00:53;;;;;;;11.93;2.20;;;9.70;99.90;;;;;;6003086;23;20416;-87
2022/09/20 01:03:21;;;;;;;9.38;2.38;;;9.70;99.90;;;;;;6005033;23;20024;-87
2022/09/20 01:05:49;;;;;;;8.50;2.03;;;9.60;99.90;;;;;;6003194;23;20332;-87
2022/09/20 01:08:16;;;;;;;12.30;2.53;;;9.60;99.90;;;;;;6002428;23;20115;-88
2022/09/20 01:10:41;;;;;;;12.13;2.55;;;9.70;99.90;;;;;;6002739;23;20489;-87
2022/09/20 01:13:07;;;;;;;7.47;1.33;;;9.60;99.90;;;;;;6003729;23;20027;-87
2022/09/20 01:15:36;;;;;;;11.30;2.22;;;9.50;99.90;;;;;;6000787;23;20429;-87
2022/09/20 01:18:03;;;;;;;8.95;2.10;;;9.60;99.90;;;;;;6002978;23;20019;-87
2022/09/20 01:20:41;;;;;;;8.32;2.17;;;9.50;99.90;;;;;;6003887;23;20333;-87
2022/09/20 01:23:27;;;;;;;9.20;2.50;;;9.60;99.90;;;;;;5978555;23;20068;-87
2022/09/20 01:26:17;;;;;;;10.15;2.45;;;9.50;99.90;;;;;;6001277;23;20465;-87
2022/09/20 01:28:49;;;;;;;10.90;2.53;;;9.50;99.90;;;;;;6002639;23;20019;-87
2022/09/20 01:31:37;;;;;;;9.38;2.38;;;9.60;99.90;;;;;;6003500;23;20019;-87
2022/09/20 01:34:10;;;;;;;11.82;2.63;;;9.50;99.90;;;;;;6003090;23;20427;-87
2022/09/20 01:36:38;;;;;;;10.00;2.15;;;9.50;99.90;;;;;;6003976;23;20042;-87
2022/09/20 01:39:09;;;;;;;9.95;2.55;;;9.60;99.90;;;;;;6002495;23;20035;-87
2022/09/20 01:41:57;;;;;;;5.10;1.17;;;9.60;99.90;;;;;;6002260;23;20012;-87
2022/09/20 01:44:35;;;;;;;10.95;2.53;;;9.60;99.90;;;;;;6001338;23;20027;-87
2022/09/20 01:47:18;;;;;;;10.75;2.17;;;9.60;99.90;;;;;;6004350;23;20012;-87
2022/09/20 01:50:00;;;;;;;7.68;2.20;;;9.70;99.90;;;;;;6002543;23;20023;-87
2022/09/20 01:53:04;;;;;;;11.10;2.50;;;9.70;99.90;;;;;;6024289;23;20015;-87
2022/09/20 01:55:49;;;;;;;11.50;2.50;;;9.70;99.90;;;;;;6003736;23;20016;-87
2022/09/20 01:58:30;;;;;;;8.40;2.40;;;9.70;99.90;;;;;;6004005;23;20020;-87
2022/09/20 02:01:25;;;;;;;;;;;9.70;99.90;;;;;;6002935;23;20024;-87
2022/09/20 02:04:22;;;;;;;10.95;2.70;;;9.60;99.90;;;;;;6002453;23;19973;-87
2022/09/20 02:07:18;;;;;;;9.82;2.50;;;9.70;99.90;;;;;;6000341;23;20031;-87
2022/09/20 02:09:53;;;;;;;11.43;2.47;;;9.70;99.90;;;;;;6001482;23;20027;-87
2022/09/20 02:12:32;;;;;;;6.93;1.40;;;9.80;99.90;;;;;;6003449;23;20027;-87
2022/09/20 02:15:26;;;;;;;9.15;2.42;;;9.70;99.90;;;;;;5978922;23;20024;-87
2022/09/20 02:18:03;;;;;;;10.48;2.33;;;9.70;99.90;;;;;;5987132;23;20020;-87
2022/09/20 02:20:39;;;;;;;10.32;2.63;;;9.70;99.90;;;;;;6005041;23;20315;-87
2022/09/20 02:23:11;;;;;;;9.88;2.60;;;9.80;99.90;;;;;;6005879;23;20087;-87
2022/09/20 02:26:15;;;;;;;9.32;2.60;;;9.70;99.90;;;;;;6006232;23;20037;-87
2022/09/20 02:29:10;;;;;;;10.85;2.38;;;9.70;99.90;;;;;;5918332;24;20101;-86
2022/09/20 02:31:54;;;;;;;5.50;1.55;;;9.60;99.90;;;;;;5925690;24;20041;-87
2022/09/20 02:34:23;;;;;;;5.55;1.10;;;9.60;99.90;;;;;;5899276;24;20038;-88
2022/09/20 02:36:54;;;;;;;8.82;2.13;;;9.50;99.90;;;;;;5895829;24;20024;-88
2022/09/20 02:40:01;;;;;;;10.07;2.40;;;9.50;99.90;;;;;;5896396;24;20447;-88
2022/09/20 02:42:48;;;;;;;9.70;2.17;;;9.50;99.90;;;;;;5896041;24;20017;-87
2022/09/20 02:45:30;;;;;;;10.65;2.40;;;9.50;99.90;;;;;;5896113;24;20036;-88
2022/09/20 02:48:02;;;;;;;9.80;2.22;;;9.40;99.90;;;;;;5896823;24;20025;-88
2022/09/20 02:50:48;;;;;;;9.30;2.60;;;9.30;99.90;;;;;;5894610;24;20113;-88
2022/09/20 02:53:45;;;;;;;9.45;2.00;;;9.20;99.90;;;;;;5919390;24;20451;-87
2022/09/20 02:56:17;;;;;;;8.27;2.17;;;9.10;99.90;;;;;;5917690;24;20048;-87
2022/09/20 02:59:02;;;;;;;11.10;2.35;;;9.10;99.90;;;;;;5918317;24;20017;-87
2022/09/20 03:01:53;;;;;;;7.40;1.67;;;9.00;99.90;;;;;;5895383;24;20017;-87
2022/09/20 03:04:57;;;;;;;4.50;1.40;;;8.90;99.90;;;;;;5898841;23;20017;-87
2022/09/20 03:07:55;;;;;;;9.20;2.47;;;8.80;99.90;;;;;;6003597;23;20018;-87
2022/09/20 03:10:23;;;;;;;7.05;1.75;;;8.80;99.90;;;;;;5895535;24;20102;-87
2022/09/20 03:13:13;;;;;;;10.73;2.60;;;8.70;99.90;;;;;;5918323;24;20048;-87
2022/09/20 03:15:57;;;;;;;13.02;3.35;;;8.70;99.90;;;;;;5918100;24;20766;-87
2022/09/20 03:18:38;;;;;;;6.22;1.40;;;8.70;99.90;;;;;;5873108;24;20021;-87
2022/09/20 03:21:57;;;;;;;3.80;1.27;;;8.60;99.90;;;;;;5895275;24;20216;-86
2022/09/20 03:24:42;;;;;;;8.80;1.35;;;8.50;99.90;;;;;;5837830;24;20022;-87
2022/09/20 03:27:35;;;;;;;10.20;2.55;;;8.50;99.90;;;;;;5814981;24;20022;-88
2022/09/20 03:30:16;;;;;;;6.82;2.00;;;8.60;99.90;;;;;;5815833;24;20116;-87
2022/09/20 03:33:23;;;;;;;6.60;2.15;;;8.70;99.90;;;;;;5836866;24;20373;-87
2022/09/20 03:36:10;;;;;;;9.30;2.63;;;8.70;99.90;;;;;;5763327;24;20065;-88
2022/09/20 03:38:41;;;;;;;10.82;2.78;;;8.80;99.90;;;;;;5762556;24;20037;-87
2022/09/20 03:41:25;;;;;;;5.43;1.60;;;8.80;99.90;;;;;;5761986;24;20465;-87
2022/09/20 03:43:56;;;;;;;10.38;2.90;;;8.80;99.90;;;;;;5784619;24;20133;-87
2022/09/20 03:46:27;;;;;;;4.85;1.67;;;8.90;99.90;;;;;;5810475;24;20130;-87
2022/09/20 03:49:08;;;;;;;8.82;1.92;;;8.90;99.90;;;;;;5867747;24;20025;-87
2022/09/20 03:51:52;;;;;;;7.60;1.88;;;8.90;99.90;;;;;;5868308;24;20090;-87
2022/09/20 03:54:41;;;;;;;7.00;2.00;;;9.00;99.90;;;;;;5891132;24;20426;-87
2022/09/20 03:57:17;;;;;;;8.90;2.30;;;9.10;99.90;;;;;;5868167;24;20027;-87
2022/09/20 04:00:29;;;;;;;7.93;2.42;;;9.20;99.90;;;;;;5895014;24;20044;-86
2022/09/20 04:03:12;;;;;;;9.77;2.35;;;9.30;99.90;;;;;;5864606;24;20412;-87
2022/09/20 04:05:50;;;;;;;10.88;2.13;;;9.40;99.90;;;;;;5892899;24;20033;-87
2022/09/20 04:08:24;;;;;;;10.95;2.95;;;9.50;99.90;;;;;;5896110;24;20081;-87
2022/09/20 04:11:01;;;;;;;9.98;2.25;;;9.60;99.90;;;;;;5993942;23;20019;-87
2022/09/20 04:13:37;;;;;;;9.00;2.60;;;9.70;99.90;;;;;;6003348;23;20016;-87
2022/09/20 04:16:40;;;;;;;8.73;2.20;;;9.80;99.90;;;;;;6005149;23;20351;-87
2022/09/20 04:19:13;;;;;;;6.85;2.05;;;9.80;99.90;;;;;;6004095;23;20063;-87
2022/09/20 04:21:58;;;;;;;8.25;2.50;;;9.70;99.90;;;;;;6003643;23;20018;-87
2022/09/20 04:24:23;;;;;;;7.93;2.50;;;9.90;99.90;;;;;;5979863;23;20038;-87
2022/09/20 04:27:03;;;;;;;8.43;2.90;;;9.90;99.90;;;;;;6003428;23;20023;-87
2022/09/20 04:29:38;;;;;;;10.82;2.75;;;9.90;99.90;;;;;;6003379;23;20339;-87
2022/09/20 04:32:39;;;;;;;6.97;2.20;;;9.90;99.90;;;;;;6001874;23;20343;-87
2022/09/20 04:38:16;;;;;;;7.25;2.03;;;9.90;99.90;;;;;;6003167;23;19914;-87
2022/09/20 04:41:16;;;;;;;10.27;2.47;;;10.00;99.90;;;;;;6004965;23;20019;-87
2022/09/20 04:44:01;;;;;;;5.47;1.65;;;10.00;99.90;;;;;;6002382;23;20525;-86
2022/09/20 04:47:05;;;;;;;8.07;2.05;;;10.10;99.90;;;;;;6008386;23;20488;-87
2022/09/20 04:49:55;;;;;;;7.65;2.15;;;10.10;99.90;;;;;;6003304;23;20111;-88
2022/09/20 04:52:57;;;;;;;7.25;1.95;;;10.10;99.90;;;;;;6004372;23;20105;-87
2022/09/20 04:55:32;;;;;;;7.63;2.00;;;10.10;99.90;;;;;;6005229;23;20020;-90
2022/09/20 04:58:35;;;;;;;8.70;1.90;;;10.10;99.90;;;;;;6007921;23;20026;-89
2022/09/20 05:01:16;;;;;;;7.47;2.15;;;10.20;99.90;;;;;;6004434;23;20051;-88
2022/09/20 05:04:10;;;;;;;8.90;2.05;;;10.20;99.90;;;;;;6000905;23;20015;-88
2022/09/20 05:07:09;;;;;;;7.03;2.00;;;10.20;99.90;;;;;;6003768;23;20019;-88
2022/09/20 05:10:06;;;;;;;5.88;1.83;;;10.20;99.90;;;;;;5979529;23;20072;-89
2022/09/20 05:12:53;;;;;;;8.30;1.83;;;10.20;99.90;;;;;;6002584;23;20019;-89
2022/09/20 05:15:46;;;;;;;6.40;1.90;;;10.20;99.90;;;;;;6001825;23;20052;-88
2022/09/20 05:19:05;;;;;;;7.47;2.00;;;10.20;99.90;;;;;;6003183;23;20453;-87
2022/09/20 05:22:10;;;;;;;6.97;1.73;;;10.20;99.90;;;;;;6002120;23;20078;-88
2022/09/20 05:25:25;;;;;;;7.35;2.30;;;10.10;99.90;;;;;;6000768;23;20023;-87
2022/09/20 05:28:05;;;;;;;5.78;2.10;;;10.10;99.90;;;;;;6003095;23;20099;-87
2022/09/20 05:30:30;;;;;;;8.45;2.53;;;10.10;99.90;;;;;;6000963;23;20411;-87
2022/09/20 05:33:20;;;;;;;6.45;2.10;;;10.10;99.90;;;;;;6002254;23;20509;-88
2022/09/20 05:36:13;;;;;;;8.82;2.95;;;10.10;99.90;;;;;;6004357;23;20012;-88
2022/09/20 05:38:53;;;;;;;6.88;2.15;;;10.10;99.90;;;;;;6003144;23;20323;-88
2022/09/20 05:41:35;;;;;;;7.32;2.03;;;10.10;99.90;;;;;;6002041;23;20070;-87
2022/09/20 05:44:40;;;;;;;7.43;1.90;;;10.10;99.90;;;;;;6002514;23;20070;-87
2022/09/20 05:47:31;;;;;;;8.13;2.20;;;10.20;99.90;;;;;;5960517;23;20020;-88
2022/09/20 05:50:32;;;;;;;7.65;2.90;;;10.20;99.90;;;;;;6003650;23;20067;-87
2022/09/20 05:53:31;;;;;;;7.88;2.22;;;10.20;99.90;;;;;;6002849;23;20761;-88
2022/09/20 05:56:22;;;;;;;8.95;2.45;;;10.20;99.90;;;;;;6002296;23;20071;-87
2022/09/20 05:59:05;;;;;;;9.52;2.38;;;10.30;99.90;;;;;;6002063;23;20018;-86
2022/09/20 06:01:44;;;;;;;6.78;2.10;;;10.30;99.90;;;;;;6005321;23;20357;-86
2022/09/20 06:04:16;;;;;;;10.20;2.42;;;10.30;99.90;;;;;;6002535;23;20024;-85
2022/09/20 06:06:53;;;;;;;8.52;2.10;;;10.40;99.90;;;;;;6005430;23;20011;-86
2022/09/20 06:09:36;;;;;;;8.77;2.30;;;10.40;99.90;;;;;;6003328;23;20020;-87
2022/09/20 06:12:23;;;;;;;7.32;1.98;;;10.50;99.90;;;;;;6002891;23;20442;-88
2022/09/20 06:15:01;;;;;;;6.82;1.80;;;10.60;99.90;;;;;;6002597;23;20028;-86
2022/09/20 06:17:33;;;;;;;8.50;2.03;;;10.60;99.90;;;;;;6004565;23;20019;-85
2022/09/20 06:20:27;;;;;;;6.68;2.00;;;10.70;99.90;;;;;;5979435;23;20022;-86
2022/09/20 06:22:55;;;;;;;10.23;2.22;;;10.80;99.90;;;;;;6005425;23;20008;-86
2022/09/20 06:25:30;;;;;;;7.72;1.80;;;10.80;99.90;;;;;;6003704;23;20058;-86
2022/09/20 06:28:12;;;;;;;6.40;1.75;;;10.90;99.90;;;;;;6003326;23;20042;-86
2022/09/20 06:30:53;;;;;;;5.70;1.50;;;10.90;99.90;;;;;;6004590;23;20019;-86
2022/09/20 06:33:24;;;;;;;7.15;1.73;;;11.00;99.90;;;;;;6004132;23;20608;-87
2022/09/20 06:41:56;;;;;;;9.90;2.35;;;11.00;99.90;;;;;;6002554;23;20032;-88
2022/09/20 06:44:22;;;;;;;9.43;2.47;;;11.20;99.90;;;;;;6006268;23;20019;-87
2022/09/20 06:46:48;;;;;;;10.40;2.13;;;11.10;99.90;;;;;;6003903;23;20446;-90
2022/09/20 06:49:14;;;;;;;7.50;2.08;;;11.20;99.90;;;;;;6006277;23;20020;-88
2022/09/20 06:51:40;;;;;;;8.27;2.20;;;11.20;99.90;;;;;;6003706;23;20054;-89
2022/09/20 06:54:13;;;;;;;9.27;2.42;;;11.30;99.90;;;;;;6005335;23;20011;-88
2022/09/20 06:56:38;;;;;;;8.63;2.28;;;11.20;99.90;;;;;;6002794;23;20497;-88
2022/09/20 06:59:09;;;;;;;7.90;2.10;;;11.20;99.90;;;;;;6008577;23;20024;-87
2022/09/20 07:01:35;;;;;;;6.40;2.10;;;11.20;99.90;;;;;;6005891;23;20067;-88
2022/09/20 07:04:01;;;;;;;7.10;2.17;;;11.30;99.90;;;;;;6004318;23;20287;-88
2022/09/20 07:06:28;;;;;;;8.15;2.20;;;11.30;99.90;;;;;;6003980;23;20050;-90
2022/09/20 07:08:54;;;;;;;9.15;2.60;;;11.30;99.90;;;;;;5980535;23;20442;-88
2022/09/20 07:11:22;;;;;;;9.32;2.42;;;11.20;99.90;;;;;;6003124;23;20505;-87
2022/09/20 07:13:52;;;;;;;8.85;2.50;;;11.20;99.90;;;;;;6005269;23;20022;-88
2022/09/20 07:16:19;;;;;;;7.75;2.40;;;11.20;99.90;;;;;;6004219;23;20027;-88
2022/09/20 07:18:45;;;;;;;8.93;2.17;;;11.30;99.90;;;;;;6004332;23;20453;-88
2022/09/20 07:21:13;;;;;;;10.23;2.78;;;11.30;99.90;;;;;;6005382;23;20103;-90
2022/09/20 07:23:39;;;;;;;8.27;2.40;;;11.40;99.90;;;;;;6005246;23;20068;-88
2022/09/20 07:26:05;;;;;;;7.05;2.30;;;11.50;99.90;;;;;;6005339;23;20379;-86
2022/09/20 07:28:33;;;;;;;10.00;2.47;;;11.60;99.90;;;;;;6003081;23;20043;-84
2022/09/20 07:30:59;;;;;;;8.05;2.40;;;11.70;99.90;;;;;;6006592;23;20044;-87
2022/09/20 07:33:24;;;;;;;7.38;2.00;;;11.80;99.90;;;;;;6004092;23;20023;-88
2022/09/20 07:35:55;;;;;;;6.93;1.80;;;11.90;99.90;;;;;;5981245;23;20462;-87
2022/09/20 07:38:22;;;;;;;6.80;2.10;;;12.00;99.90;;;;;;6007010;23;20013;-88
2022/09/20 07:41:01;;;;;;;8.15;2.20;;;12.10;99.90;;;;;;6007632;23;20016;-87
2022/09/20 07:43:28;;;;;;;9.48;2.40;;;12.10;99.90;;;;;;6005459;23;20115;-88
2022/09/20 07:45:55;;;;;;;8.55;2.45;;;12.20;99.90;;;;;;6003926;23;20323;-88
2022/09/20 07:48:34;;;;;;;10.38;2.70;;;12.30;99.90;;;;;;6006397;23;20020;-85
2022/09/20 07:51:06;;;;;;;5.97;1.98;;;12.30;99.90;;;;;;5981340;23;20054;-85
2022/09/20 07:53:32;;;;;;;7.72;2.20;;;12.30;99.90;;;;;;6004695;23;20051;-85
2022/09/20 07:56:24;;;;;;;6.65;2.17;;;12.40;99.90;;;;;;6003122;23;20020;-87
2022/09/20 07:58:50;;;;;;;9.73;2.55;;;12.40;99.90;;;;;;6001863;23;20127;-89
2022/09/20 08:01:16;;;;;;;7.50;2.20;;;12.40;99.90;;;;;;6004520;23;20047;-87
2022/09/20 08:03:41;;;;;;;8.13;2.47;;;12.50;99.90;;;;;;6004654;23;20019;-87
2022/09/20 08:06:10;;;;;;;8.45;2.55;;;12.50;99.90;;;;;;6002416;23;20019;-88
2022/09/20 08:08:37;;;;;;;7.88;2.40;;;12.60;99.90;;;;;;6000371;23;20027;-86
2022/09/20 08:11:13;;;;;;;9.73;2.78;;;12.60;99.90;;;;;;5999942;23;20016;-85
2022/09/20 08:13:41;;;;;;;8.30;2.10;;;12.70;99.90;;;;;;6004803;23;20507;-85
2022/09/20 08:16:09;;;;;;;8.27;2.40;;;12.70;99.90;;;;;;6003008;23;20034;-85
2022/09/20 08:18:36;;;;;;;8.68;2.67;;;12.80;99.90;;;;;;6002975;23;20023;-85
2022/09/20 08:21:07;;;;;;;8.32;1.90;;;12.90;99.90;;;;;;6003298;23;20022;-84
2022/09/20 08:23:34;;;;;;;9.35;1.90;;;13.00;99.90;;;;;;6001741;23;20427;-85
2022/09/20 08:26:01;;;;;;;7.50;1.50;;;13.00;99.90;;;;;;6006016;23;20015;-84
2022/09/20 08:28:28;;;;;;;8.52;1.92;;;13.10;99.90;;;;;;6003395;23;20091;-84
2022/09/20 08:31:03;;;;;;;6.10;1.50;;;13.10;99.90;;;;;;6002537;23;20087;-84
2022/09/20 08:33:30;;;;;;;7.57;1.63;;;13.10;99.90;;;;;;6000614;23;20019;-84
2022/09/20 08:35:55;;;;;;;7.95;1.88;;;13.20;99.90;;;;;;6001778;23;20087;-85
2022/09/20 08:38:25;;;;;;;6.90;1.48;;;13.20;99.90;;;;;;6003627;23;20073;-84
2022/09/20 08:41:00;;;;;;;6.32;1.60;;;13.20;99.90;;;;;;6003163;23;20015;-84
2022/09/20 08:43:33;;;;;;;8.23;1.70;;;13.30;99.90;;;;;;6002505;23;20023;-85
2022/09/20 08:46:02;;;;;;;5.47;1.20;;;13.30;99.90;;;;;;5978469;23;20055;-85
2022/09/20 08:48:32;;;;;;;7.78;1.63;;;13.30;99.90;;;;;;6002961;23;20055;-85
2022/09/20 08:51:03;;;;;;;5.80;1.58;;;13.20;99.90;;;;;;6002557;23;20071;-84
2022/09/20 08:53:29;;;;;;;7.50;1.63;;;13.20;99.90;;;;;;6000346;23;20033;-84
2022/09/20 08:55:59;;;;;;;6.85;1.38;;;13.20;99.90;;;;;;6001567;23;20020;-85
2022/09/20 08:58:26;;;;;;;7.75;1.40;;;13.20;99.90;;;;;;6001781;23;20344;-84
2022/09/20 09:00:54;;;;;;;8.27;1.42;;;13.20;99.90;;;;;;6001332;23;20055;-85
2022/09/20 09:03:20;;;;;;;6.18;1.48;;;13.20;99.90;;;;;;6001399;23;20023;-85
2022/09/20 09:05:48;;;;;;;5.40;1.30;;;13.20;99.90;;;;;;6000930;23;20019;-86
2022/09/20 09:08:23;;;;;;;6.32;1.40;;;13.30;99.90;;;;;;6001459;23;20027;-85
2022/09/20 09:11:12;;;;;;;5.22;1.33;;;13.30;99.90;;;;;;6001631;23;20370;-84
2022/09/20 09:14:00;;;;;;;7.18;1.40;;;13.30;99.90;;;;;;6002866;23;20334;-88
2022/09/20 09:16:30;;;;;;;5.88;1.60;;;13.40;99.90;;;;;;6004857;23;20023;-86
2022/09/20 09:18:56;;;;;;;8.20;1.52;;;13.30;99.90;;;;;;6003916;23;20051;-88
2022/09/20 09:21:28;;;;;;;6.03;1.30;;;13.50;99.90;;;;;;6001323;23;20095;-88
2022/09/20 09:24:15;;;;;;;6.03;1.13;;;13.50;99.90;;;;;;6001604;23;20043;-87
2022/09/20 09:26:45;;;;;;;4.80;1.40;;;13.50;99.90;;;;;;5977771;23;20067;-87
2022/09/20 09:29:13;;;;;;;8.18;1.33;;;13.60;99.90;;;;;;6000592;23;20345;-85
2022/09/20 09:31:38;;;;;;;5.40;1.20;;;13.60;99.90;;;;;;6003100;23;20403;-85
2022/09/20 09:34:20;;;;;;;5.57;1.23;;;13.60;99.90;;;;;;6005075;23;20016;-84
2022/09/20 09:36:46;;;;;;;6.40;1.30;;;13.60;99.90;;;;;;6000709;23;20050;-85
2022/09/20 09:39:15;;;;;;;5.38;1.40;;;13.70;99.90;;;;;;6002566;23;20383;-84
2022/09/20 09:41:42;;;;;;;8.25;1.30;;;13.70;99.90;;;;;;5978127;23;20020;-85
2022/09/20 09:44:26;;;;;;;7.60;1.30;;;13.80;99.90;;;;;;6003696;23;20087;-84
2022/09/20 09:46:52;;;;;;;5.68;1.48;;;13.80;99.90;;;;;;6003342;23;20051;-85
2022/09/20 09:49:22;;;;;;;4.00;1.30;;;13.90;99.90;;;;;;6002714;23;20043;-86
2022/09/20 09:51:54;;;;;;;6.57;1.15;;;13.90;99.90;;;;;;6000496;23;20027;-84
2022/09/20 09:54:27;;;;;;;6.07;1.20;;;13.90;99.90;;;;;;6000930;23;20019;-85
2022/09/20 09:56:59;;;;;;;7.45;1.17;;;14.00;99.90;;;;;;6001742;23;20342;-86
2022/09/20 10:00:04;;;;;;;7.80;1.17;;;14.00;99.90;;;;;;6003073;23;20055;-86
2022/09/20 10:02:50;;;;;;;6.25;1.50;;;14.10;99.90;;;;;;6002490;23;20023;-85
2022/09/20 10:05:45;;;;;;;7.18;1.35;;;14.30;99.90;;;;;;5956346;23;20020;-85
2022/09/20 10:08:53;;;;;;;5.88;1.00;;;14.50;99.90;;;;;;6001214;23;20030;-86
2022/09/20 10:11:55;;;;;;;5.30;1.10;;;14.70;99.90;;;;;;6000714;23;20019;-87
2022/09/20 10:14:43;;;;;;;4.97;1.05;;;14.90;99.90;;;;;;5977853;23;20106;-86
2022/09/20 10:17:25;;;;;;;6.32;1.23;;;15.00;99.90;;;;;;6001911;23;20059;-85
2022/09/20 10:20:22;;;;;;;5.90;1.10;;;15.20;99.90;;;;;;6001580;23;20044;-87
2022/09/20 10:23:25;;;;;;;6.72;1.20;;;15.10;99.90;;;;;;5977520;23;20050;-87
2022/09/20 10:26:12;;;;;;;5.80;1.08;;;15.10;99.90;;;;;;6003757;23;20019;-88
2022/09/20 10:29:11;;;;;;;8.07;1.70;;;15.00;99.90;;;;;;6002842;23;20038;-85
2022/09/20 10:31:42;;;;;;;8.00;1.70;;;14.90;99.90;;;;;;6001559;23;20207;-86
2022/09/20 10:34:08;;;;;;;4.03;1.02;;;14.70;99.90;;;;;;6004420;23;20019;-84
2022/09/20 10:36:43;;;;;;;3.13;1.02;;;14.30;99.90;;;;;;6001719;23;20054;-86
2022/09/20 10:39:16;;;;;;;6.22;1.17;;;14.10;99.90;;;;;;6002058;23;20020;-88
2022/09/20 10:44:42;;;;;;;3.60;0.93;;;13.80;99.90;;;;;;6004337;23;20023;-91
2022/09/20 10:47:18;;;;;;;5.20;1.30;;;13.70;99.90;;;;;;6006562;23;20246;-88
2022/09/20 10:49:47;;;;;;;5.82;1.20;;;13.70;99.90;;;;;;6001640;23;20024;-88
2022/09/20 10:52:35;;;;;;;6.55;1.38;;;13.70;99.90;;;;;;6003936;23;20038;-89
2022/09/20 10:55:03;;;;;;;6.60;1.52;;;13.70;99.90;;;;;;6003876;23;20023;-91
2022/09/20 10:57:41;;;;;;;6.75;1.52;;;13.70;99.90;;;;;;6002979;23;20340;-90
2022/09/20 11:00:23;;;;;;;6.15;1.20;;;13.80;99.90;;;;;;6004508;23;20106;-90
2022/09/20 11:03:14;;;;;;;5.80;1.00;;;13.80;99.90;;;;;;6002619;23;20067;-90
2022/09/20 11:05:45;;;;;;;;;;;13.90;99.90;;;;;;6007296;23;20023;-90
2022/09/20 11:08:15;;;;;;;4.30;1.20;;;13.90;99.90;;;;;;6005474;23;19997;-92
2022/09/20 11:10:43;;;;;;;5.88;1.13;;;13.90;99.90;;;;;;6004638;23;20047;-90
2022/09/20 11:13:40;;;;;;;6.30;1.10;;;14.00;99.90;;;;;;6006498;23;20020;-90
2022/09/20 11:16:15;;;;;;;6.22;1.00;;;14.20;99.90;;;;;;6008066;23;20020;-91
2022/09/20 11:18:59;;;;;;;3.10;0.90;;;14.30;99.90;;;;;;6030463;23;20058;-90
2022/09/20 11:21:46;;;;;;;5.43;1.00;;;14.40;99.90;;;;;;6004935;23;20024;-89
2022/09/20 11:24:27;;;;;;;5.15;1.23;;;14.50;99.90;;;;;;6005296;23;20350;-90
2022/09/20 11:26:55;;;;;;;;;;;14.60;99.90;;;;;;6002162;23;20333;-90
2022/09/20 11:29:32;;;;;;;3.53;0.98;;;14.60;99.90;;;;;;6005527;23;19921;-92
2022/09/20 11:32:24;;;;;;;4.93;0.98;;;14.70;99.90;;;;;;6003892;23;20366;-88
2022/09/20 11:34:54;;;;;;;6.50;1.20;;;14.80;99.90;;;;;;5966922;23;20050;-92
2022/09/20 11:37:24;;;;;;;4.35;0.90;;;14.90;99.90;;;;;;6019454;23;20012;-91
2022/09/20 11:39:53;;;;;;;3.25;0.75;;;15.00;99.90;;;;;;6012067;23;20019;-90
2022/09/20 11:42:26;;;;;;;6.25;1.20;;;15.00;99.90;;;;;;6010303;23;20012;-91
2022/09/20 11:44:53;;;;;;;4.43;0.93;;;15.10;99.90;;;;;;6007230;23;20026;-90
2022/09/20 11:47:34;;;;;;;8.38;1.30;;;15.10;99.90;;;;;;6003333;23;20366;-90
2022/09/20 11:50:31;;;;;;;6.03;1.38;;;15.20;99.90;;;;;;6006473;23;20019;-89
2022/09/20 11:53:12;;;;;;;4.63;1.05;;;15.30;99.90;;;;;;6005343;23;20027;-87
2022/09/20 11:55:49;;;;;;;5.90;1.33;;;15.40;99.90;;;;;;6003452;23;20395;-90
2022/09/20 11:58:17;;;;;;;6.20;1.05;;;15.30;99.90;;;;;;6004186;23;20026;-90
2022/09/20 12:00:47;;;;;;;6.57;2.13;;;15.30;99.90;;;;;;5980281;23;20019;-90
2022/09/20 12:03:27;;;;;;;6.75;1.20;;;15.40;99.90;;;;;;6002186;23;20023;-88
2022/09/20 12:06:24;;;;;;;6.20;1.10;;;15.40;99.90;;;;;;6001109;23;20015;-88
2022/09/20 12:08:51;;;;;;;6.55;1.35;;;15.40;99.90;;;;;;6000787;23;20023;-89
2022/09/20 12:11:30;;;;;;;5.47;1.25;;;15.50;99.90;;;;;;6001236;23;20020;-89
2022/09/20 12:14:16;;;;;;;5.90;1.13;;;15.50;99.90;;;;;;6002048;23;20022;-89
2022/09/20 12:16:44;;;;;;;4.90;1.10;;;15.50;99.90;;;;;;6001293;23;20030;-90
2022/09/20 12:19:33;;;;;;;4.80;1.00;;;15.70;99.90;;;;;;6000051;23;20027;-87
2022/09/20 12:21:58;;;;;;;6.32;1.15;;;15.80;99.90;;;;;;6003277;23;20034;-89
2022/09/20 12:24:35;;;;;;;9.68;1.30;;;15.90;99.90;;;;;;6007243;23;20086;-88
2022/09/20 12:27:25;;;;;;;6.03;1.20;;;15.90;99.90;;;;;;6006451;23;20687;-88
2022/09/20 12:30:15;;;;;;;8.32;1.77;;;15.90;99.90;;;;;;6001925;23;20030;-88
2022/09/20 12:32:51;;;;;;;7.75;1.40;;;15.90;99.90;;;;;;6003037;23;20394;-87
2022/09/20 12:35:34;;;;;;;7.95;1.15;;;15.90;99.90;;;;;;6004521;23;20056;-88
2022/09/20 12:38:19;;;;;;;5.10;1.17;;;15.70;99.90;;;;;;6006706;23;20047;-89
2022/09/20 12:41:10;;;;;;;5.00;1.17;;;15.70;99.90;;;;;;6002737;23;20015;-92
2022/09/20 12:43:52;;;;;;;12.82;2.33;;;15.50;99.90;;;;;;6005667;23;20383;-89
2022/09/20 12:46:21;;;;;;;9.93;1.58;;;15.40;99.90;;;;;;6002099;23;20402;-90
2022/09/20 12:48:47;;;;;;;6.65;1.48;;;15.40;99.90;;;;;;6001865;23;20027;-91
2022/09/20 12:54:11;;;;;;;6.45;1.17;;;15.40;99.90;;;;;;6006508;23;20028;-89
2022/09/20 12:56:39;;;;;;;7.22;1.20;;;15.40;99.90;;;;;;6003194;23;20028;-89
2022/09/20 12:59:21;;;;;;;5.43;1.30;;;15.40;99.90;;;;;;6004708;23;20016;-90
2022/09/20 13:01:46;;;;;;;7.20;1.15;;;15.40;99.90;;;;;;6004627;23;20023;-91
2022/09/20 13:04:51;;;;;;;7.63;1.30;;;15.50;99.90;;;;;;6004549;23;20437;-90
2022/09/20 13:07:41;;;;;;;6.70;1.27;;;15.50;99.90;;;;;;5979164;23;20018;-91
2022/09/20 13:10:28;;;;;;;7.40;1.40;;;15.40;99.90;;;;;;6004625;23;20387;-91
2022/09/20 13:12:59;;;;;;;7.20;1.27;;;15.40;99.90;;;;;;6005335;23;20023;-92
2022/09/20 13:15:25;;;;;;;5.90;1.40;;;15.40;99.90;;;;;;5978413;23;20023;-90
2022/09/20 13:17:53;;;;;;;5.20;1.10;;;15.30;99.90;;;;;;6001179;23;20094;-90
2022/09/20 13:20:28;;;;;;;7.95;1.30;;;15.40;99.90;;;;;;6002148;23;20019;-90
2022/09/20 13:22:55;;;;;;;6.60;1.20;;;15.40;99.90;;;;;;6004432;23;20047;-90
2022/09/20 13:25:22;;;;;;;4.95;1.55;;;15.40;99.90;;;;;;6004462;23;20063;-90
2022/09/20 13:28:05;;;;;;;5.22;1.10;;;15.40;99.90;;;;;;6005154;23;20043;-89
2022/09/20 13:30:31;;;;;;;8.00;1.75;;;15.40;99.90;;;;;;6002021;23;20034;-89
2022/09/20 13:33:20;;;;;;;5.15;1.35;;;15.60;99.90;;;;;;6005831;23;20143;-90
2022/09/20 13:35:48;;;;;;;7.57;1.30;;;15.70;99.90;;;;;;6003870;23;20027;-92
2022/09/20 13:38:21;;;;;;;5.95;1.33;;;15.80;99.90;;;;;;6007824;23;20076;-96
2022/09/20 13:40:47;;;;;;;6.72;1.20;;;15.80;99.90;;;;;;5981899;23;20012;-95
2022/09/20 13:43:36;;;;;;;5.53;1.30;;;15.90;99.90;;;;;;5982671;23;20020;-91
2022/09/20 13:46:15;;;;;;;3.88;1.02;;;15.90;99.90;;;;;;6005252;23;20548;-94
2022/09/20 13:48:42;;;;;;;5.07;1.00;;;15.90;99.90;;;;;;6008612;23;20016;-93
2022/09/20 13:51:19;;;;;;;5.03;0.90;;;15.90;99.90;;;;;;6020250;23;20010;-93
2022/09/20 13:53:46;;;;;;;5.78;1.08;;;15.80;99.90;;;;;;6027674;23;20338;-91
2022/09/20 13:56:28;;;;;;;4.85;1.10;;;15.80;99.90;;;;;;6010414;23;20026;-93
2022/09/20 13:58:57;;;;;;;5.63;1.08;;;15.70;99.90;;;;;;5981580;23;20012;-93